createdAt,value
2023-10-30T00:01:16.258Z,8.78
2023-10-30T00:03:50.952Z,8.84
2023-10-30T00:06:24.827Z,8.81
2023-10-30T00:08:59.937Z,8.82
2023-10-30T00:11:34.258Z,8.77
2023-10-30T00:14:08.008Z,8.80
2023-10-30T00:16:41.837Z,8.80
2023-10-30T00:19:15.625Z,8.76
2023-10-30T00:21:49.385Z,8.76
2023-10-30T00:24:25.187Z,8.79
2023-10-30T00:26:59.359Z,8.76
2023-10-30T00:29:35.490Z,8.73
2023-10-30T00:32:09.842Z,8.69
2023-10-30T00:34:43.592Z,8.60
2023-10-30T00:37:17.393Z,8.67
2023-10-30T00:39:52.467Z,8.54
2023-10-30T00:42:28.648Z,8.45
2023-10-30T00:45:05.362Z,8.56
2023-10-30T00:47:41.028Z,8.52
2023-10-30T00:50:14.725Z,8.40
2023-10-30T00:52:48.443Z,8.44
2023-10-30T00:55:23.560Z,8.48
2023-10-30T00:57:57.441Z,8.53
2023-10-30T01:00:31.182Z,8.49
2023-10-30T01:03:05.351Z,8.49
2023-10-30T01:05:39.858Z,8.46
2023-10-30T01:08:13.638Z,8.42
2023-10-30T01:10:48.720Z,8.28
2023-10-30T01:13:22.517Z,8.36
2023-10-30T01:15:56.594Z,8.33
2023-10-30T01:18:30.449Z,8.29
2023-10-30T01:21:04.299Z,8.30
2023-10-30T01:23:38.299Z,8.31
2023-10-30T01:26:13.646Z,8.30
2023-10-30T01:28:47.394Z,8.35
2023-10-30T01:31:22.784Z,8.28
2023-10-30T01:33:56.679Z,8.28
2023-10-30T01:36:31.464Z,8.33
2023-10-30T01:39:05.665Z,8.33
2023-10-30T01:41:42.289Z,8.29
2023-10-30T01:44:22.870Z,8.27
2023-10-30T01:46:56.989Z,8.11
2023-10-30T01:49:30.670Z,8.11
2023-10-30T01:52:04.655Z,8.11
2023-10-30T01:54:39.138Z,8.13
2023-10-30T01:57:16.092Z,8.10
2023-10-30T01:59:51.590Z,8.07
2023-10-30T02:02:25.954Z,8.09
2023-10-30T02:05:00.404Z,8.06
2023-10-30T02:07:34.682Z,7.93
2023-10-30T02:10:09.824Z,7.86
2023-10-30T02:12:45.613Z,7.92
2023-10-30T02:15:19.885Z,7.98
2023-10-30T02:17:54.142Z,7.98
2023-10-30T02:20:28.576Z,8.00
2023-10-30T02:23:02.850Z,7.97
2023-10-30T02:25:38.118Z,8.02
2023-10-30T02:28:12.347Z,7.97
2023-10-30T02:30:46.267Z,7.94
2023-10-30T02:33:20.093Z,7.91
2023-10-30T02:35:53.902Z,7.82
2023-10-30T02:38:27.838Z,7.80
2023-10-30T02:41:03.106Z,7.77
2023-10-30T02:43:36.844Z,7.80
2023-10-30T02:46:10.696Z,7.74
2023-10-30T02:48:44.551Z,7.73
2023-10-30T02:51:18.851Z,7.75
2023-10-30T02:53:53.556Z,7.77
2023-10-30T02:56:28.683Z,7.78
2023-10-30T02:59:02.824Z,7.78
2023-10-30T03:01:36.895Z,7.60
2023-10-30T03:04:14.475Z,7.58
2023-10-30T03:06:48.514Z,7.57
2023-10-30T03:09:22.233Z,7.61
2023-10-30T03:11:57.401Z,7.69
2023-10-30T03:14:31.133Z,7.69
2023-10-30T03:17:06.826Z,7.68
2023-10-30T03:19:40.537Z,7.69
2023-10-30T03:22:14.295Z,7.68
2023-10-30T03:24:48.103Z,7.64
2023-10-30T03:27:23.326Z,7.71
2023-10-30T03:29:57.324Z,7.76
2023-10-30T03:32:31.248Z,7.63
2023-10-30T03:35:05.589Z,7.60
2023-10-30T03:37:39.304Z,7.55
2023-10-30T03:40:14.364Z,7.60
2023-10-30T03:42:49.396Z,7.59
2023-10-30T03:45:24.900Z,7.58
2023-10-30T03:48:00.126Z,7.61
2023-10-30T03:50:35.046Z,7.63
2023-10-30T03:53:09.827Z,7.65
2023-10-30T03:55:43.620Z,7.59
2023-10-30T03:58:18.756Z,7.56
2023-10-30T04:00:52.436Z,7.63
2023-10-30T04:03:26.237Z,7.57
2023-10-30T04:06:02.906Z,7.55
2023-10-30T04:08:36.745Z,7.59
2023-10-30T04:11:11.678Z,7.49
2023-10-30T04:13:47.061Z,7.48
2023-10-30T04:16:21.966Z,7.38
2023-10-30T04:18:55.965Z,7.26
2023-10-30T04:21:30.339Z,7.29
2023-10-30T04:24:04.421Z,7.34
2023-10-30T04:26:38.148Z,7.36
2023-10-30T04:29:13.305Z,7.38
2023-10-30T04:31:47.062Z,7.29
2023-10-30T04:34:21.008Z,7.22
2023-10-30T04:36:54.688Z,7.20
2023-10-30T04:39:28.606Z,7.24
2023-10-30T04:42:02.338Z,7.18
2023-10-30T04:44:37.517Z,7.22
2023-10-30T04:47:11.609Z,7.23
2023-10-30T04:49:47.194Z,7.24
2023-10-30T04:52:21.067Z,7.17
2023-10-30T04:54:54.888Z,7.05
2023-10-30T04:57:28.764Z,7.14
2023-10-30T05:00:05.857Z,7.18
2023-10-30T05:02:39.602Z,7.19
2023-10-30T05:05:13.389Z,7.19
2023-10-30T05:07:48.507Z,7.22
2023-10-30T05:10:22.510Z,7.21
2023-10-30T05:12:56.184Z,7.20
2023-10-30T05:15:31.305Z,7.18
2023-10-30T05:18:05.283Z,7.13
2023-10-30T05:20:39.033Z,7.05
2023-10-30T05:23:12.720Z,7.13
2023-10-30T05:25:46.373Z,7.05
2023-10-30T05:28:20.199Z,6.92
2023-10-30T05:30:57.093Z,6.98
2023-10-30T05:33:30.998Z,6.99
2023-10-30T05:36:06.058Z,7.06
2023-10-30T05:38:39.820Z,6.95
2023-10-30T05:41:13.549Z,7.05
2023-10-30T05:43:47.336Z,7.06
2023-10-30T05:46:22.439Z,7.05
2023-10-30T05:48:56.192Z,7.06
2023-10-30T05:51:30.630Z,7.06
2023-10-30T05:54:04.870Z,7.07
2023-10-30T05:56:38.573Z,7.01
2023-10-30T05:59:12.271Z,7.14
2023-10-30T06:01:49.075Z,7.22
2023-10-30T06:04:22.840Z,7.10
2023-10-30T06:06:56.554Z,7.25
2023-10-30T06:09:31.378Z,7.37
2023-10-30T06:12:05.609Z,7.36
2023-10-30T06:14:39.356Z,7.45
2023-10-30T06:17:14.424Z,7.47
2023-10-30T06:19:48.365Z,7.59
2023-10-30T06:22:22.462Z,7.62
2023-10-30T06:24:56.345Z,7.75
2023-10-30T06:27:30.129Z,7.87
2023-10-30T06:30:03.997Z,8.01
2023-10-30T06:32:39.916Z,8.13
2023-10-30T06:35:13.760Z,8.26
2023-10-30T06:37:47.528Z,8.40
2023-10-30T06:40:21.361Z,8.54
2023-10-30T06:42:55.103Z,8.67
2023-10-30T06:45:28.897Z,8.86
2023-10-30T06:48:04.062Z,9.05
2023-10-30T06:50:37.834Z,9.22
2023-10-30T06:53:11.620Z,9.43
2023-10-30T06:55:45.384Z,9.64
2023-10-30T06:58:19.597Z,9.90
2023-10-30T07:00:53.318Z,10.10
2023-10-30T07:03:28.603Z,10.29
2023-10-30T07:06:03.732Z,10.50
2023-10-30T07:08:37.422Z,10.73
2023-10-30T07:11:12.187Z,10.94
2023-10-30T07:13:45.922Z,11.15
2023-10-30T07:16:20.252Z,11.42
2023-10-30T07:18:55.847Z,11.66
2023-10-30T07:21:30.462Z,11.92
2023-10-30T07:24:04.312Z,12.20
2023-10-30T07:26:38.077Z,12.42
2023-10-30T07:29:12.406Z,12.69
2023-10-30T07:31:46.257Z,12.94
2023-10-30T07:34:23.008Z,13.14
2023-10-30T07:36:56.900Z,13.46
2023-10-30T07:39:30.766Z,13.72
2023-10-30T07:42:04.845Z,13.90
2023-10-30T07:44:40.343Z,14.08
2023-10-30T07:47:14.746Z,14.23
2023-10-30T07:49:50.194Z,14.46
2023-10-30T07:52:23.972Z,14.56
2023-10-30T07:54:57.879Z,14.58
2023-10-30T07:57:31.720Z,14.77
2023-10-30T08:00:06.701Z,14.84
2023-10-30T08:02:47.618Z,14.94
2023-10-30T08:05:23.814Z,14.97
2023-10-30T08:07:57.595Z,15.19
2023-10-30T08:10:31.516Z,15.30
2023-10-30T08:13:05.369Z,15.48
2023-10-30T08:15:39.184Z,15.61
2023-10-30T08:18:13.228Z,15.71
2023-10-30T08:20:48.474Z,16.06
2023-10-30T08:23:22.301Z,16.10
2023-10-30T08:25:55.980Z,16.14
2023-10-30T08:28:30.375Z,16.27
2023-10-30T08:31:05.578Z,16.27
2023-10-30T08:33:40.217Z,16.35
2023-10-30T08:36:23.482Z,16.75
2023-10-30T08:38:57.203Z,17.10
2023-10-30T08:41:30.968Z,17.23
2023-10-30T08:44:05.832Z,17.27
2023-10-30T08:46:39.615Z,17.34
2023-10-30T08:49:13.451Z,17.22
2023-10-30T08:52:00.650Z,17.28
2023-10-30T08:54:38.036Z,17.49
2023-10-30T08:57:17.504Z,17.48
2023-10-30T08:59:51.766Z,17.61
2023-10-30T09:02:26.490Z,17.81
2023-10-30T09:05:00.740Z,17.95
2023-10-30T09:07:35.942Z,18.13
2023-10-30T09:10:10.120Z,18.37
2023-10-30T09:12:43.874Z,18.56
2023-10-30T09:15:17.684Z,18.58
2023-10-30T09:17:51.474Z,18.68
2023-10-30T09:20:25.319Z,18.69
2023-10-30T09:23:00.370Z,18.85
2023-10-30T09:25:34.245Z,19.23
2023-10-30T09:28:08.013Z,19.58
2023-10-30T09:30:41.836Z,19.77
2023-10-30T09:33:15.586Z,19.83
2023-10-30T09:35:49.251Z,19.93
2023-10-30T09:38:26.212Z,19.87
2023-10-30T09:41:04.122Z,19.95
2023-10-30T09:43:39.021Z,20.03
2023-10-30T09:46:14.579Z,20.19
2023-10-30T09:48:50.859Z,20.39
2023-10-30T09:51:26.623Z,20.59
2023-10-30T09:54:03.458Z,20.63
2023-10-30T09:56:40.552Z,20.63
2023-10-30T09:59:17.461Z,20.77
2023-10-30T10:01:51.594Z,21.16
2023-10-30T10:04:25.580Z,21.37
2023-10-30T10:06:59.655Z,21.43
2023-10-30T10:09:34.844Z,21.65
2023-10-30T10:12:22.004Z,21.62
2023-10-30T10:14:56.088Z,21.70
2023-10-30T10:17:30.181Z,21.86
2023-10-30T10:20:05.965Z,21.69
2023-10-30T10:22:40.428Z,21.95
2023-10-30T10:25:19.732Z,21.80
2023-10-30T10:27:56.324Z,21.75
2023-10-30T10:30:33.637Z,21.79
2023-10-30T10:33:07.887Z,22.00
2023-10-30T10:35:44.547Z,22.04
2023-10-30T10:38:19.834Z,22.16
2023-10-30T10:40:56.174Z,22.19
2023-10-30T10:43:31.192Z,22.24
2023-10-30T10:46:05.547Z,22.45
2023-10-30T10:48:39.470Z,22.63
2023-10-30T10:51:15.543Z,22.53
2023-10-30T10:53:52.172Z,22.67
2023-10-30T10:56:28.126Z,22.70
2023-10-30T10:59:05.358Z,22.75
2023-10-30T11:01:44.118Z,22.95
2023-10-30T11:04:19.120Z,22.85
2023-10-30T11:07:02.000Z,22.99
2023-10-30T11:09:42.786Z,22.78
2023-10-30T11:12:29.476Z,22.88
2023-10-30T11:15:13.915Z,22.87
2023-10-30T11:18:14.750Z,23.04
2023-10-30T11:20:48.792Z,22.87
2023-10-30T11:24:01.380Z,22.74
2023-10-30T11:26:40.893Z,22.67
2023-10-30T11:29:18.774Z,22.87
2023-10-30T11:32:06.092Z,23.09
2023-10-30T11:34:41.169Z,23.11
2023-10-30T11:37:16.191Z,23.04
2023-10-30T11:39:51.296Z,23.20
2023-10-30T11:42:29.164Z,22.89
2023-10-30T11:45:24.277Z,22.87
2023-10-30T11:48:01.006Z,22.81
2023-10-30T11:50:36.579Z,23.18
2023-10-30T11:53:11.741Z,22.92
2023-10-30T11:55:45.485Z,22.66
2023-10-30T11:58:20.991Z,22.46
2023-10-30T12:00:56.186Z,22.51
2023-10-30T12:03:29.959Z,22.80
2023-10-30T12:06:03.860Z,23.05
2023-10-30T12:08:37.763Z,23.22
2023-10-30T12:11:12.559Z,23.21
2023-10-30T12:13:47.446Z,23.20
2023-10-30T12:16:22.881Z,23.45
2023-10-30T12:18:58.031Z,23.58
2023-10-30T12:21:32.443Z,23.61
2023-10-30T12:24:06.718Z,23.54
2023-10-30T12:26:42.210Z,23.68
2023-10-30T12:29:22.105Z,23.92
2023-10-30T12:32:06.983Z,23.82
2023-10-30T12:34:40.987Z,23.56
2023-10-30T12:37:22.157Z,23.50
2023-10-30T12:40:05.215Z,23.36
2023-10-30T12:42:40.603Z,23.39
2023-10-30T12:45:16.185Z,23.13
2023-10-30T12:47:52.452Z,23.16
2023-10-30T12:50:26.277Z,22.96
2023-10-30T12:52:59.964Z,22.79
2023-10-30T12:55:34.105Z,22.83
2023-10-30T12:58:07.876Z,22.79
2023-10-30T13:00:41.829Z,22.74
2023-10-30T13:03:17.052Z,22.72
2023-10-30T13:05:50.970Z,22.87
2023-10-30T13:08:24.691Z,23.03
2023-10-30T13:10:58.976Z,23.03
2023-10-30T13:13:32.846Z,23.05
2023-10-30T13:16:07.835Z,23.22
2023-10-30T13:18:43.163Z,23.06
2023-10-30T13:21:17.414Z,22.77
2023-10-30T13:23:51.131Z,22.69
2023-10-30T13:26:25.131Z,22.45
2023-10-30T13:28:59.018Z,22.66
2023-10-30T13:31:32.893Z,22.52
2023-10-30T13:34:08.100Z,22.65
2023-10-30T13:36:41.865Z,22.66
2023-10-30T13:39:16.778Z,22.58
2023-10-30T13:41:52.136Z,22.60
2023-10-30T13:44:25.927Z,22.58
2023-10-30T13:46:59.668Z,22.66
2023-10-30T13:49:34.850Z,22.60
2023-10-30T13:52:08.656Z,22.70
2023-10-30T13:54:43.565Z,22.75
2023-10-30T13:57:17.371Z,22.59
2023-10-30T13:59:51.245Z,22.67
2023-10-30T14:02:25.033Z,22.63
2023-10-30T14:05:00.304Z,22.58
2023-10-30T14:07:34.841Z,22.37
2023-10-30T14:10:09.969Z,22.28
2023-10-30T14:12:44.094Z,22.36
2023-10-30T14:15:18.058Z,22.28
2023-10-30T14:17:51.764Z,22.18
2023-10-30T14:20:27.221Z,22.03
2023-10-30T14:23:00.981Z,22.08
2023-10-30T14:25:34.747Z,21.99
2023-10-30T14:28:08.511Z,22.05
2023-10-30T14:30:42.220Z,22.06
2023-10-30T14:33:17.357Z,22.07
2023-10-30T14:35:54.264Z,22.09
2023-10-30T14:38:28.023Z,22.11
2023-10-30T14:41:01.751Z,22.03
2023-10-30T14:43:35.566Z,21.75
2023-10-30T14:46:09.315Z,21.61
2023-10-30T14:48:43.188Z,21.60
2023-10-30T14:51:19.876Z,21.52
2023-10-30T14:53:54.110Z,21.54
2023-10-30T14:56:31.187Z,21.49
2023-10-30T14:59:05.158Z,21.35
2023-10-30T15:01:39.049Z,21.33
2023-10-30T15:04:12.978Z,21.22
2023-10-30T15:06:48.265Z,21.16
2023-10-30T15:09:23.495Z,21.10
2023-10-30T15:11:57.251Z,21.01
2023-10-30T15:14:31.076Z,20.93
2023-10-30T15:17:05.689Z,20.81
2023-10-30T15:19:39.608Z,20.74
2023-10-30T15:22:14.764Z,20.53
2023-10-30T15:24:48.785Z,20.41
2023-10-30T15:27:24.921Z,20.25
2023-10-30T15:29:58.776Z,20.14
2023-10-30T15:32:33.993Z,20.05
2023-10-30T15:35:09.032Z,19.90
2023-10-30T15:37:44.244Z,19.80
2023-10-30T15:40:18.034Z,19.69
2023-10-30T15:42:51.847Z,19.55
2023-10-30T15:45:27.453Z,19.43
2023-10-30T15:48:01.361Z,19.27
2023-10-30T15:50:38.017Z,19.09
2023-10-30T15:58:46.151Z,18.62
2023-10-30T16:01:20.560Z,18.42
2023-10-30T16:03:54.473Z,18.30
2023-10-30T16:06:30.018Z,18.20
2023-10-30T16:09:06.051Z,18.03
2023-10-30T16:12:12.340Z,17.92
2023-10-30T16:14:33.943Z,17.63
2023-10-30T16:20:03.955Z,17.37
2023-10-30T16:22:40.556Z,17.27
2023-10-30T16:25:15.629Z,17.07
2023-10-30T16:27:49.373Z,16.94
2023-10-30T16:30:23.142Z,16.83
2023-10-30T16:32:57.006Z,16.78
2023-10-30T16:35:30.844Z,16.58
2023-10-30T16:38:04.581Z,16.52
2023-10-30T16:40:39.760Z,16.36
2023-10-30T16:43:13.493Z,16.29
2023-10-30T16:45:47.230Z,16.19
2023-10-30T16:48:21.141Z,16.06
2023-10-30T16:50:54.886Z,15.95
2023-10-30T16:53:28.882Z,15.90
2023-10-30T16:56:03.987Z,15.77
2023-10-30T16:58:38.028Z,15.67
2023-10-30T17:01:11.922Z,15.55
2023-10-30T17:03:45.749Z,15.44
2023-10-30T17:06:19.465Z,15.36
2023-10-30T17:08:53.888Z,15.24
2023-10-30T17:11:29.590Z,15.18
2023-10-30T17:14:03.519Z,15.11
2023-10-30T17:16:38.195Z,14.98
2023-10-30T17:19:12.002Z,14.93
2023-10-30T17:21:45.663Z,14.83
2023-10-30T17:24:19.391Z,14.75
2023-10-30T17:26:54.430Z,14.69
2023-10-30T17:29:28.106Z,14.62
2023-10-30T17:32:01.835Z,14.55
2023-10-30T17:34:35.685Z,14.47
2023-10-30T17:37:09.379Z,14.40
2023-10-30T17:39:43.158Z,14.33
2023-10-30T17:42:18.194Z,14.26
2023-10-30T17:44:52.272Z,14.07
2023-10-30T17:47:26.266Z,14.04
2023-10-30T17:50:01.118Z,13.96
2023-10-30T17:52:35.105Z,13.92
2023-10-30T17:55:09.669Z,13.81
2023-10-30T17:57:45.262Z,13.72
2023-10-30T18:00:19.182Z,13.68
2023-10-30T18:02:53.192Z,13.55
2023-10-30T18:05:26.943Z,13.51
2023-10-30T18:08:01.599Z,13.45
2023-10-30T18:10:35.387Z,13.29
2023-10-30T18:13:10.682Z,13.20
2023-10-30T18:15:44.509Z,13.14
2023-10-30T18:18:18.392Z,13.12
2023-10-30T18:20:52.177Z,13.09
2023-10-30T18:23:25.925Z,13.01
2023-10-30T18:25:59.604Z,12.88
2023-10-30T18:28:34.787Z,12.86
2023-10-30T18:31:10.631Z,12.85
2023-10-30T18:33:44.466Z,12.66
2023-10-30T18:36:18.180Z,12.53
2023-10-30T18:38:52.676Z,12.20
2023-10-30T18:41:26.384Z,12.01
2023-10-30T18:44:01.643Z,12.10
2023-10-30T18:46:35.414Z,11.97
2023-10-30T18:49:09.127Z,12.03
2023-10-30T18:51:44.007Z,12.13
2023-10-30T18:54:17.770Z,12.16
2023-10-30T18:56:51.459Z,12.07
2023-10-30T18:59:26.816Z,12.17
2023-10-30T19:02:01.090Z,12.15
2023-10-30T19:04:35.019Z,12.16
2023-10-30T19:07:08.894Z,12.12
2023-10-30T19:09:42.587Z,12.15
2023-10-30T19:12:16.443Z,12.13
2023-10-30T19:14:52.547Z,12.14
2023-10-30T19:17:26.456Z,12.18
2023-10-30T19:20:00.465Z,12.18
2023-10-30T19:22:34.585Z,12.14
2023-10-30T19:25:08.797Z,12.10
2023-10-30T19:27:42.487Z,12.00
2023-10-30T19:30:18.707Z,12.03
2023-10-30T19:32:54.699Z,11.98
2023-10-30T19:35:28.398Z,11.99
2023-10-30T19:38:02.169Z,11.91
2023-10-30T19:40:37.108Z,11.86
2023-10-30T19:43:10.908Z,11.85
2023-10-30T19:45:46.147Z,11.81
2023-10-30T19:48:20.631Z,11.64
2023-10-30T19:50:54.643Z,11.63
2023-10-30T19:53:28.426Z,11.66
2023-10-30T19:56:02.245Z,11.61
2023-10-30T19:58:36.005Z,11.64
2023-10-30T20:01:11.774Z,11.49
2023-10-30T20:03:45.568Z,11.38
2023-10-30T20:06:19.323Z,11.46
2023-10-30T20:08:53.020Z,11.40
2023-10-30T20:11:26.870Z,11.35
2023-10-30T20:14:00.600Z,11.38
2023-10-30T20:16:35.664Z,11.33
2023-10-30T20:19:10.315Z,11.26
2023-10-30T20:21:44.081Z,11.33
2023-10-30T20:24:17.902Z,11.35
2023-10-30T20:26:51.696Z,11.33
2023-10-30T20:29:25.667Z,11.34
2023-10-30T20:32:00.933Z,11.33
2023-10-30T20:34:34.797Z,11.39
2023-10-30T20:37:09.438Z,11.39
2023-10-30T20:39:43.133Z,11.50
2023-10-30T20:42:16.895Z,11.51
2023-10-30T20:44:50.647Z,11.54
2023-10-30T20:47:25.802Z,11.56
2023-10-30T20:49:59.530Z,11.52
2023-10-30T20:52:33.350Z,11.49
2023-10-30T20:55:07.485Z,11.50
2023-10-30T20:57:41.643Z,11.51
2023-10-30T21:00:16.891Z,11.50
2023-10-30T21:02:53.029Z,11.55
2023-10-30T21:05:45.349Z,11.52
2023-10-30T21:08:34.153Z,11.49
2023-10-30T21:11:08.066Z,11.48
2023-10-30T21:13:43.137Z,11.50
2023-10-30T21:16:16.871Z,11.36
2023-10-30T21:18:52.068Z,11.41
2023-10-30T21:21:25.818Z,11.39
2023-10-30T21:24:01.038Z,11.38
2023-10-30T21:26:34.749Z,11.35
2023-10-30T21:29:09.834Z,11.28
2023-10-30T21:31:44.242Z,11.27
2023-10-30T21:34:21.145Z,11.30
2023-10-30T21:36:55.485Z,11.43
2023-10-30T21:39:29.157Z,11.48
2023-10-30T21:42:02.975Z,11.54
2023-10-30T21:44:36.764Z,11.59
2023-10-30T21:47:10.506Z,11.59
2023-10-30T21:49:45.586Z,11.64
2023-10-30T21:52:19.338Z,11.61
2023-10-30T21:54:53.527Z,11.66
2023-10-30T21:57:27.342Z,11.67
2023-10-30T22:00:02.176Z,11.74
2023-10-30T22:02:45.429Z,11.80
2023-10-30T22:05:20.943Z,11.79
2023-10-30T22:07:54.802Z,11.84
2023-10-30T22:10:28.802Z,11.89
2023-10-30T22:13:02.929Z,12.04
2023-10-30T22:15:36.687Z,12.06
2023-10-30T22:18:10.481Z,12.17
2023-10-30T22:20:45.637Z,12.23
2023-10-30T22:23:19.443Z,12.33
2023-10-30T22:25:53.173Z,12.38
2023-10-30T22:28:26.895Z,12.40
2023-10-30T22:31:00.711Z,12.41
2023-10-30T22:33:34.457Z,12.44
2023-10-30T22:36:10.343Z,12.42
2023-10-30T22:38:44.100Z,12.44
2023-10-30T22:41:17.826Z,12.44
2023-10-30T22:43:53.315Z,12.51
2023-10-30T22:46:27.089Z,12.48
2023-10-30T22:49:00.802Z,12.57
2023-10-30T22:51:35.913Z,12.55
2023-10-30T22:54:09.741Z,12.58
2023-10-30T22:56:43.484Z,12.59
2023-10-30T22:59:17.265Z,12.66
2023-10-30T23:01:51.200Z,12.61
2023-10-30T23:04:24.895Z,12.64
2023-10-30T23:07:00.429Z,12.62
2023-10-30T23:09:34.309Z,12.65
2023-10-30T23:12:08.575Z,12.57
2023-10-30T23:14:42.242Z,12.57
2023-10-30T23:17:17.856Z,12.60
2023-10-30T23:19:51.727Z,12.60
2023-10-30T23:22:27.109Z,12.59
2023-10-30T23:25:00.815Z,12.65
2023-10-30T23:27:34.588Z,12.61
2023-10-30T23:30:09.712Z,12.64
2023-10-30T23:32:43.952Z,12.64
2023-10-30T23:35:17.813Z,12.68
2023-10-30T23:37:57.320Z,12.67
2023-10-30T23:40:33.237Z,12.68
2023-10-30T23:43:07.045Z,12.70
2023-10-30T23:45:40.755Z,12.72
2023-10-30T23:48:14.603Z,12.70
2023-10-30T23:50:48.362Z,12.69
2023-10-30T23:53:23.542Z,12.70
2023-10-30T23:55:57.325Z,12.69
2023-10-30T23:58:31.225Z,12.64
